Time;durP1;ratioP1;P1;durP2;ratioP2;P2;SDS_P1;SDS_P2;PMS_P1;PMS_P2;Temp;Humidity;BMP_temperature;BMP_pressure;BME280_temperature;BME280_humidity;BME280_pressure;Samples;Min_cycle;Max_cycle;Signal;HPM_P1;HPM_P2
2021/08/25 00:01:06;;;;;;;13.10;7.57;;;;;;;;;;4971186;28;20034;-59
2021/08/25 00:03:35;;;;;;;10.93;6.45;;;;;;;;;;4985204;28;20060;-61
2021/08/25 00:06:00;;;;;;;15.57;5.82;;;;;;;;;;4985426;28;20040;-61
2021/08/25 00:08:25;;;;;;;12.55;6.72;;;;;;;;;;4986985;28;20042;-61
2021/08/25 00:10:53;;;;;;;10.85;6.82;;;;;;;;;;4985522;28;20032;-61
2021/08/25 00:13:20;;;;;;;8.48;5.88;;;;;;;;;;4967424;28;20038;-61
2021/08/25 00:15:46;;;;;;;9.85;6.18;;;;;;;;;;4986611;28;20042;-61
2021/08/25 00:18:14;;;;;;;12.57;6.65;;;;;;;;;;4982320;28;22233;-61
2021/08/25 00:20:42;;;;;;;19.58;6.65;;;;;;;;;;4982345;28;20047;-61
2021/08/25 00:23:10;;;;;;;9.10;5.15;;;;;;;;;;4967194;28;20022;-60
2021/08/25 00:25:35;;;;;;;52.03;7.30;;;;;;;;;;4985415;28;20077;-61
2021/08/25 00:28:04;;;;;;;18.35;6.72;;;;;;;;;;4983503;28;20033;-61
2021/08/25 00:30:36;;;;;;;26.67;5.85;;;;;;;;;;4944586;28;20061;-61
2021/08/25 00:33:03;;;;;;;46.05;6.28;;;;;;;;;;4978871;28;20036;-62
2021/08/25 00:35:28;;;;;;;11.25;5.20;;;;;;;;;;4965152;28;20034;-61
2021/08/25 00:37:54;;;;;;;8.60;5.00;;;;;;;;;;4950099;28;20045;-61
2021/08/25 00:40:22;;;;;;;8.30;5.00;;;;;;;;;;4965234;28;20568;-62
2021/08/25 00:42:52;;;;;;;6.65;4.70;;;;;;;;;;4949926;28;20042;-60
2021/08/25 00:45:21;;;;;;;8.15;4.50;;;;;;;;;;4983899;28;20080;-60
2021/08/25 00:47:49;;;;;;;25.85;4.80;;;;;;;;;;4979217;28;20056;-60
2021/08/25 00:50:16;;;;;;;33.83;5.40;;;;;;;;;;4981781;28;20070;-61
2021/08/25 00:52:46;;;;;;;26.70;4.70;;;;;;;;;;4984642;28;20018;-61
2021/08/25 00:55:13;;;;;;;23.83;5.18;;;;;;;;;;4986036;28;22007;-61
2021/08/25 00:57:45;;;;;;;42.35;5.07;;;;;;;;;;4981553;28;20036;-61
2021/08/25 01:00:11;;;;;;;16.77;5.15;;;;;;;;;;4984502;28;20083;-60
2021/08/25 01:02:41;;;;;;;50.00;5.75;;;;;;;;;;4983396;28;20059;-60
2021/08/25 01:05:08;;;;;;;70.05;6.90;;;;;;;;;;4983063;28;20042;-61
2021/08/25 01:07:37;;;;;;;23.92;6.15;;;;;;;;;;4986149;28;20034;-59
2021/08/25 01:10:23;;;;;;;8.80;5.75;;;;;;;;;;4955292;28;21631;-60
2021/08/25 01:12:49;;;;;;;7.38;5.72;;;;;;;;;;4982741;28;22023;-60
2021/08/25 01:15:15;;;;;;;11.85;5.68;;;;;;;;;;4986569;28;20033;-60
2021/08/25 01:17:43;;;;;;;8.02;5.32;;;;;;;;;;4982654;28;20038;-60
2021/08/25 01:20:13;;;;;;;8.23;5.38;;;;;;;;;;4980604;28;20033;-61
2021/08/25 01:22:42;;;;;;;6.47;4.90;;;;;;;;;;4962445;28;20037;-60
2021/08/25 01:25:10;;;;;;;8.43;5.68;;;;;;;;;;4984319;28;20034;-59
2021/08/25 01:27:37;;;;;;;8.20;5.03;;;;;;;;;;4982984;28;20053;-60
2021/08/25 01:30:09;;;;;;;7.75;5.03;;;;;;;;;;4985806;28;20532;-62
2021/08/25 01:32:35;;;;;;;11.57;5.57;;;;;;;;;;4985453;28;20037;-61
2021/08/25 01:35:00;;;;;;;6.72;5.07;;;;;;;;;;4986683;28;20026;-60
2021/08/25 01:37:29;;;;;;;8.55;5.40;;;;;;;;;;4986510;28;20617;-61
2021/08/25 01:39:55;;;;;;;7.28;5.15;;;;;;;;;;4973648;28;20066;-59
2021/08/25 01:42:21;;;;;;;8.10;5.00;;;;;;;;;;4978350;28;20044;-61
2021/08/25 01:44:47;;;;;;;22.08;6.07;;;;;;;;;;4989775;28;20053;-61
2021/08/25 01:47:16;;;;;;;8.05;6.05;;;;;;;;;;4969055;28;20137;-60
2021/08/25 01:49:42;;;;;;;8.88;5.82;;;;;;;;;;4989509;28;20042;-61
2021/08/25 01:52:11;;;;;;;7.57;5.53;;;;;;;;;;4987610;28;20076;-60
2021/08/25 01:54:39;;;;;;;11.15;6.70;;;;;;;;;;4989033;28;20026;-60
2021/08/25 01:57:05;;;;;;;10.30;6.10;;;;;;;;;;4965272;28;20049;-59
2021/08/25 01:59:31;;;;;;;10.13;5.07;;;;;;;;;;4986436;28;20496;-60
2021/08/25 02:01:59;;;;;;;8.02;5.45;;;;;;;;;;4972634;28;21083;-60
2021/08/25 02:04:27;;;;;;;7.85;5.20;;;;;;;;;;4987623;28;20058;-60
2021/08/25 02:06:55;;;;;;;14.65;5.30;;;;;;;;;;4987236;28;20048;-60
2021/08/25 02:09:23;;;;;;;7.40;5.35;;;;;;;;;;4983820;28;20057;-60
2021/08/25 02:11:49;;;;;;;10.30;5.95;;;;;;;;;;4987519;28;20384;-59
2021/08/25 02:14:18;;;;;;;7.45;5.40;;;;;;;;;;4985434;28;20030;-61
2021/08/25 02:16:44;;;;;;;8.13;5.32;;;;;;;;;;4970557;28;20045;-60
2021/08/25 02:19:10;;;;;;;8.82;5.10;;;;;;;;;;4967694;28;20052;-61
2021/08/25 02:21:35;;;;;;;8.85;4.10;;;;;;;;;;4970160;28;20038;-61
2021/08/25 02:24:01;;;;;;;9.27;4.47;;;;;;;;;;4988070;28;20041;-61
2021/08/25 02:29:38;;;;;;;8.07;4.80;;;;;;;;;;4990339;28;21017;-60
2021/08/25 02:32:05;;;;;;;7.63;4.60;;;;;;;;;;4968833;28;20149;-59
2021/08/25 02:34:32;;;;;;;5.90;4.03;;;;;;;;;;4987728;28;21967;-60
2021/08/25 02:36:57;;;;;;;5.22;4.40;;;;;;;;;;4985536;28;20060;-60
2021/08/25 02:39:23;;;;;;;6.20;4.72;;;;;;;;;;4982962;28;21200;-61
2021/08/25 02:41:50;;;;;;;8.48;3.38;;;;;;;;;;4984387;28;20062;-60
2021/08/25 02:44:19;;;;;;;4.25;3.40;;;;;;;;;;4981915;28;20037;-60
2021/08/25 02:46:45;;;;;;;8.43;3.25;;;;;;;;;;4985398;28;20034;-60
2021/08/25 02:49:13;;;;;;;3.63;2.78;;;;;;;;;;4969949;28;20022;-60
2021/08/25 02:55:14;;;;;;;6.85;3.63;;;;;;;;;;4988804;28;20040;-60
2021/08/25 02:58:08;;;;;;;5.50;3.17;;;;;;;;;;4965284;28;20041;-61
2021/08/25 03:00:36;;;;;;;6.15;3.95;;;;;;;;;;4985382;28;20088;-61
2021/08/25 03:03:04;;;;;;;3.72;3.13;;;;;;;;;;4970976;28;20121;-60
2021/08/25 03:05:34;;;;;;;4.53;3.17;;;;;;;;;;4986025;28;20037;-60
2021/08/25 03:08:05;;;;;;;7.80;3.05;;;;;;;;;;4984566;28;20091;-60
2021/08/25 03:10:30;;;;;;;8.18;3.53;;;;;;;;;;4982511;28;20040;-61
2021/08/25 03:16:31;;;;;;;3.92;2.80;;;;;;;;;;4986284;28;20107;-62
2021/08/25 03:18:57;;;;;;;4.00;3.08;;;;;;;;;;4987394;28;20041;-60
2021/08/25 03:21:25;;;;;;;2.95;2.53;;;;;;;;;;4985074;28;20030;-62
2021/08/25 03:23:51;;;;;;;4.85;2.65;;;;;;;;;;4986911;28;20104;-61
2021/08/25 03:29:52;;;;;;;4.50;3.40;;;;;;;;;;4988212;28;20032;-61
2021/08/25 03:32:17;;;;;;;3.10;2.65;;;;;;;;;;4984003;28;20057;-60
2021/08/25 03:34:43;;;;;;;6.13;2.50;;;;;;;;;;4987034;28;20140;-60
2021/08/25 03:37:32;;;;;;;3.33;2.35;;;;;;;;;;4986532;28;20549;-59
2021/08/25 03:40:00;;;;;;;2.50;2.00;;;;;;;;;;4986772;28;20048;-61
2021/08/25 03:42:26;;;;;;;4.15;1.98;;;;;;;;;;4984459;28;20021;-62
2021/08/25 03:48:27;;;;;;;2.60;2.30;;;;;;;;;;4983144;28;20401;-60
2021/08/25 03:50:53;;;;;;;5.07;1.80;;;;;;;;;;4986912;28;20041;-61
2021/08/25 03:53:18;;;;;;;2.10;1.77;;;;;;;;;;4967667;28;20041;-62
2021/08/25 03:55:47;;;;;;;3.00;2.13;;;;;;;;;;4985204;28;20112;-60
2021/08/25 03:58:15;;;;;;;2.45;2.17;;;;;;;;;;4971017;28;22208;-61
2021/08/25 04:00:40;;;;;;;2.70;2.38;;;;;;;;;;4983648;28;20030;-60
2021/08/25 04:03:11;;;;;;;2.95;2.22;;;;;;;;;;4970169;28;20104;-61
2021/08/25 04:05:36;;;;;;;3.38;2.40;;;;;;;;;;4985053;28;20053;-60
2021/08/25 04:08:05;;;;;;;3.95;2.78;;;;;;;;;;4987832;28;20093;-60
2021/08/25 04:10:33;;;;;;;3.30;2.45;;;;;;;;;;4981827;28;20084;-60
2021/08/25 04:13:00;;;;;;;2.53;2.22;;;;;;;;;;4986721;28;20097;-61
2021/08/25 04:15:27;;;;;;;2.88;2.53;;;;;;;;;;4984711;28;20144;-60
2021/08/25 04:17:52;;;;;;;3.80;2.38;;;;;;;;;;4969573;28;20097;-60
2021/08/25 04:20:22;;;;;;;8.63;3.78;;;;;;;;;;4985204;28;20034;-59
2021/08/25 04:22:51;;;;;;;16.13;4.00;;;;;;;;;;4969117;28;20069;-59
2021/08/25 04:25:17;;;;;;;5.65;3.35;;;;;;;;;;4981887;28;20040;-61
2021/08/25 04:27:44;;;;;;;3.67;2.45;;;;;;;;;;4980595;28;20714;-59
2021/08/25 04:30:13;;;;;;;6.40;2.58;;;;;;;;;;4986279;28;20025;-60
2021/08/25 04:32:38;;;;;;;3.42;2.50;;;;;;;;;;4984218;28;20115;-60
2021/08/25 04:35:06;;;;;;;4.85;2.90;;;;;;;;;;4964826;28;21048;-60
2021/08/25 04:37:34;;;;;;;3.00;2.20;;;;;;;;;;4988277;28;20057;-60
2021/08/25 04:40:01;;;;;;;3.72;2.40;;;;;;;;;;4947468;28;20022;-61
2021/08/25 04:42:30;;;;;;;6.95;2.78;;;;;;;;;;4965569;28;20069;-60
2021/08/25 04:44:57;;;;;;;7.10;2.63;;;;;;;;;;4985113;28;20034;-59
2021/08/25 04:47:23;;;;;;;3.42;2.70;;;;;;;;;;4966227;28;20026;-60
2021/08/25 04:49:51;;;;;;;2.33;2.13;;;;;;;;;;4970459;28;20413;-61
2021/08/25 04:52:19;;;;;;;3.13;2.83;;;;;;;;;;4981091;28;20045;-61
2021/08/25 04:54:45;;;;;;;2.95;2.53;;;;;;;;;;4982990;28;20144;-60
2021/08/25 04:57:11;;;;;;;5.40;2.53;;;;;;;;;;4984254;28;20030;-60
2021/08/25 04:59:41;;;;;;;5.28;3.45;;;;;;;;;;4982944;28;20037;-60
2021/08/25 05:02:07;;;;;;;5.10;3.35;;;;;;;;;;4986364;28;20034;-61
2021/08/25 05:04:35;;;;;;;3.60;2.70;;;;;;;;;;4984959;28;20042;-60
2021/08/25 05:07:03;;;;;;;3.22;2.70;;;;;;;;;;4982380;28;20046;-60
2021/08/25 05:09:28;;;;;;;2.72;2.05;;;;;;;;;;4967625;28;20065;-60
2021/08/25 05:11:56;;;;;;;7.75;3.15;;;;;;;;;;4981173;28;21933;-60
2021/08/25 05:14:22;;;;;;;4.40;3.10;;;;;;;;;;4961555;28;20064;-60
2021/08/25 05:16:53;;;;;;;4.95;3.67;;;;;;;;;;4984507;28;20124;-60
2021/08/25 05:19:18;;;;;;;3.00;2.42;;;;;;;;;;4978293;28;20147;-59
2021/08/25 05:21:47;;;;;;;2.95;2.63;;;;;;;;;;4967166;28;20029;-59
2021/08/25 05:24:12;;;;;;;8.98;2.83;;;;;;;;;;4965638;28;20041;-58
2021/08/25 05:26:40;;;;;;;3.40;2.40;;;;;;;;;;4984844;28;20143;-59
2021/08/25 05:29:05;;;;;;;2.83;2.30;;;;;;;;;;4969712;28;20068;-59
2021/08/25 05:31:33;;;;;;;2.50;2.30;;;;;;;;;;4984905;28;21220;-59
2021/08/25 05:34:01;;;;;;;7.78;2.65;;;;;;;;;;4983173;28;20022;-60
2021/08/25 05:36:26;;;;;;;4.38;2.30;;;;;;;;;;4985498;28;20038;-60
2021/08/25 05:38:52;;;;;;;2.95;2.50;;;;;;;;;;4966612;28;20072;-60
2021/08/25 05:41:19;;;;;;;3.72;2.10;;;;;;;;;;4962337;28;20959;-60
2021/08/25 05:43:50;;;;;;;3.17;2.17;;;;;;;;;;4951959;28;20048;-60
2021/08/25 05:46:15;;;;;;;3.10;2.38;;;;;;;;;;4987231;28;20030;-60
2021/08/25 05:48:45;;;;;;;3.50;2.10;;;;;;;;;;4984621;28;20057;-61
2021/08/25 05:51:15;;;;;;;8.45;2.92;;;;;;;;;;4984654;28;20022;-61
2021/08/25 05:53:47;;;;;;;2.50;1.90;;;;;;;;;;4983985;28;20101;-61
2021/08/25 05:56:15;;;;;;;6.28;2.20;;;;;;;;;;4965313;28;20153;-61
2021/08/25 05:58:43;;;;;;;4.32;2.38;;;;;;;;;;4986059;28;20615;-60
2021/08/25 06:01:11;;;;;;;10.07;2.40;;;;;;;;;;4970104;28;20072;-61
2021/08/25 06:03:39;;;;;;;3.53;2.25;;;;;;;;;;4983184;28;20033;-63
2021/08/25 06:06:06;;;;;;;3.60;2.00;;;;;;;;;;4956029;28;20026;-61
2021/08/25 06:08:35;;;;;;;3.60;1.92;;;;;;;;;;4982636;28;20034;-62
2021/08/25 06:11:00;;;;;;;3.22;2.08;;;;;;;;;;4985747;28;20129;-62
2021/08/25 06:13:29;;;;;;;2.78;1.67;;;;;;;;;;4986550;28;20018;-61
2021/08/25 06:15:57;;;;;;;3.85;1.63;;;;;;;;;;4970873;28;20060;-62
2021/08/25 06:18:22;;;;;;;1.70;1.48;;;;;;;;;;4973320;28;20069;-59
2021/08/25 06:20:48;;;;;;;2.05;1.65;;;;;;;;;;4969273;28;20725;-62
2021/08/25 06:23:13;;;;;;;4.43;1.75;;;;;;;;;;4964368;28;20201;-62
2021/08/25 06:25:43;;;;;;;2.17;1.40;;;;;;;;;;4964699;28;20900;-62
2021/08/25 06:28:12;;;;;;;2.35;1.63;;;;;;;;;;4982814;28;20046;-62
2021/08/25 06:30:40;;;;;;;3.70;1.90;;;;;;;;;;4985591;28;20103;-63
2021/08/25 06:33:08;;;;;;;2.72;2.00;;;;;;;;;;4958749;28;20486;-62
2021/08/25 06:35:33;;;;;;;3.35;1.75;;;;;;;;;;4953904;28;20045;-62
2021/08/25 06:38:01;;;;;;;3.47;1.67;;;;;;;;;;4988250;28;21154;-63
2021/08/25 06:40:27;;;;;;;5.00;2.00;;;;;;;;;;4981034;28;20029;-63
2021/08/25 06:42:52;;;;;;;2.67;1.63;;;;;;;;;;4976305;28;20502;-62
2021/08/25 06:45:20;;;;;;;4.32;1.83;;;;;;;;;;4978205;28;20121;-62
2021/08/25 06:47:48;;;;;;;4.18;1.83;;;;;;;;;;4986342;28;20029;-63
2021/08/25 06:50:15;;;;;;;1.85;1.52;;;;;;;;;;4985150;28;20042;-62
2021/08/25 06:52:45;;;;;;;3.15;2.03;;;;;;;;;;4987479;28;20022;-62
2021/08/25 06:55:11;;;;;;;1.88;1.65;;;;;;;;;;4975468;28;20038;-62
2021/08/25 06:57:39;;;;;;;3.97;1.60;;;;;;;;;;4987021;28;20290;-63
2021/08/25 07:00:05;;;;;;;4.05;1.70;;;;;;;;;;4961164;28;22224;-62
2021/08/25 07:02:33;;;;;;;3.25;1.67;;;;;;;;;;4980066;28;20030;-61
2021/08/25 07:04:59;;;;;;;3.72;1.50;;;;;;;;;;4962315;28;20539;-61
2021/08/25 07:07:27;;;;;;;3.80;1.20;;;;;;;;;;4986637;28;20017;-61
2021/08/25 07:09:53;;;;;;;1.67;1.58;;;;;;;;;;4984438;28;20027;-62
2021/08/25 07:12:23;;;;;;;3.88;1.63;;;;;;;;;;4972159;28;20045;-62
2021/08/25 07:14:51;;;;;;;1.90;1.38;;;;;;;;;;4979633;28;20034;-62
2021/08/25 07:17:16;;;;;;;5.93;1.30;;;;;;;;;;4976550;28;20037;-62
2021/08/25 07:19:44;;;;;;;2.78;1.48;;;;;;;;;;4957646;28;20034;-62
2021/08/25 07:22:12;;;;;;;4.18;1.70;;;;;;;;;;4956602;28;20151;-62
2021/08/25 07:24:43;;;;;;;1.77;1.40;;;;;;;;;;4977074;28;20029;-63
2021/08/25 07:27:09;;;;;;;2.08;1.13;;;;;;;;;;4961460;28;20084;-63
2021/08/25 07:29:39;;;;;;;2.50;1.40;;;;;;;;;;4944361;28;20057;-62
2021/08/25 07:32:05;;;;;;;2.22;1.10;;;;;;;;;;4954164;28;20044;-62
2021/08/25 07:34:33;;;;;;;2.55;1.33;;;;;;;;;;4976804;28;20029;-61
2021/08/25 07:37:00;;;;;;;6.30;1.45;;;;;;;;;;4973541;28;20713;-62
2021/08/25 07:39:26;;;;;;;3.45;1.52;;;;;;;;;;4975865;28;20029;-62
2021/08/25 07:41:56;;;;;;;2.60;1.20;;;;;;;;;;4977411;28;20152;-62
2021/08/25 07:44:21;;;;;;;4.75;1.30;;;;;;;;;;4972413;28;20029;-62
2021/08/25 07:46:47;;;;;;;3.65;1.48;;;;;;;;;;4956959;28;20511;-62
2021/08/25 07:49:15;;;;;;;4.20;0.93;;;;;;;;;;4955395;28;20092;-62
2021/08/25 07:51:40;;;;;;;2.35;1.02;;;;;;;;;;4978071;28;20604;-62
2021/08/25 07:54:08;;;;;;;0.90;0.80;;;;;;;;;;4943441;28;20354;-62
2021/08/25 07:56:34;;;;;;;3.33;0.90;;;;;;;;;;4974103;28;20526;-62
2021/08/25 07:58:59;;;;;;;4.47;0.85;;;;;;;;;;4957932;28;20069;-63
2021/08/25 08:01:25;;;;;;;3.28;0.90;;;;;;;;;;4957649;28;20487;-63
2021/08/25 08:03:53;;;;;;;1.67;0.85;;;;;;;;;;4957645;28;20033;-63
2021/08/25 08:06:21;;;;;;;1.35;0.50;;;;;;;;;;4977802;28;20746;-63
2021/08/25 08:08:47;;;;;;;1.17;0.60;;;;;;;;;;4959923;28;20605;-62
2021/08/25 08:11:13;;;;;;;0.47;0.32;;;;;;;;;;4968811;28;20022;-62
2021/08/25 08:13:38;;;;;;;0.20;0.20;;;;;;;;;;4983701;28;20026;-62
2021/08/25 08:16:08;;;;;;;0.98;0.40;;;;;;;;;;4981502;28;20057;-63
2021/08/25 08:18:41;;;;;;;1.90;0.25;;;;;;;;;;4985452;28;20065;-63
2021/08/25 08:21:09;;;;;;;1.67;0.30;;;;;;;;;;4985410;28;20157;-63
2021/08/25 08:23:34;;;;;;;0.40;0.15;;;;;;;;;;4984718;28;20077;-62
2021/08/25 08:26:03;;;;;;;1.85;0.10;;;;;;;;;;4984193;28;20044;-62
2021/08/25 08:28:31;;;;;;;0.10;0.10;;;;;;;;;;4979722;28;20025;-63
2021/08/25 08:30:57;;;;;;;0.10;0.10;;;;;;;;;;4985054;28;20029;-63
2021/08/25 08:33:27;;;;;;;1.25;0.15;;;;;;;;;;4981912;28;20025;-62
2021/08/25 08:35:53;;;;;;;0.30;0.15;;;;;;;;;;4970209;28;20033;-62
2021/08/25 08:38:21;;;;;;;1.98;0.20;;;;;;;;;;4984381;28;20049;-62
2021/08/25 08:40:49;;;;;;;0.70;0.10;;;;;;;;;;4985169;28;20879;-62
2021/08/25 08:43:15;;;;;;;0.82;0.30;;;;;;;;;;4983166;28;20088;-62
2021/08/25 08:45:44;;;;;;;0.50;0.20;;;;;;;;;;4981228;28;20026;-61
2021/08/25 08:48:13;;;;;;;0.50;0.20;;;;;;;;;;4982731;28;20032;-63
2021/08/25 08:50:41;;;;;;;0.65;0.20;;;;;;;;;;4984669;28;20030;-62
2021/08/25 08:53:12;;;;;;;0.65;0.28;;;;;;;;;;4984497;28;20040;-61
2021/08/25 08:55:38;;;;;;;0.30;0.30;;;;;;;;;;4980943;28;20041;-62
2021/08/25 08:58:04;;;;;;;1.20;0.20;;;;;;;;;;4982583;28;20021;-62
2021/08/25 09:00:32;;;;;;;0.55;0.40;;;;;;;;;;4969827;28;22305;-62
2021/08/25 09:03:00;;;;;;;1.48;0.43;;;;;;;;;;4984579;28;20025;-61
2021/08/25 09:05:34;;;;;;;2.78;0.43;;;;;;;;;;4986571;28;22013;-61
2021/08/25 09:08:03;;;;;;;0.45;0.20;;;;;;;;;;4981081;28;20050;-61
2021/08/25 09:10:30;;;;;;;1.15;0.30;;;;;;;;;;4968861;28;20060;-61
2021/08/25 09:12:57;;;;;;;0.43;0.20;;;;;;;;;;4966186;28;20112;-61
2021/08/25 09:15:28;;;;;;;0.60;0.35;;;;;;;;;;4981822;28;20084;-62
2021/08/25 09:17:54;;;;;;;2.75;0.20;;;;;;;;;;4984252;28;20156;-63
2021/08/25 09:20:23;;;;;;;0.82;0.30;;;;;;;;;;4967042;28;20164;-63
2021/08/25 09:23:05;;;;;;;0.25;0.10;;;;;;;;;;4980917;28;20037;-63
2021/08/25 09:25:31;;;;;;;0.85;0.10;;;;;;;;;;4970290;28;20121;-61
2021/08/25 09:27:59;;;;;;;0.52;0.25;;;;;;;;;;4980937;28;20166;-61
2021/08/25 09:30:45;;;;;;;0.13;0.13;;;;;;;;;;4983045;28;20141;-61
2021/08/25 09:33:12;;;;;;;0.38;0.20;;;;;;;;;;4982915;28;20041;-62
2021/08/25 09:35:41;;;;;;;0.63;0.10;;;;;;;;;;4969268;28;20560;-62
2021/08/25 09:38:17;;;;;;;0.80;0.20;;;;;;;;;;4984569;28;20046;-61
2021/08/25 09:40:43;;;;;;;;;;;;;;;;;;4968242;28;20045;-62
2021/08/25 09:43:11;;;;;;;0.97;0.20;;;;;;;;;;4963791;28;20087;-60
2021/08/25 09:45:38;;;;;;;0.85;0.20;;;;;;;;;;4981158;28;20030;-63
2021/08/25 09:48:04;;;;;;;0.22;0.15;;;;;;;;;;4970009;28;20038;-63
2021/08/25 09:50:30;;;;;;;0.10;0.10;;;;;;;;;;4968225;28;20199;-62
2021/08/25 09:53:03;;;;;;;0.40;0.10;;;;;;;;;;4987058;28;20025;-62
2021/08/25 09:55:33;;;;;;;1.17;0.30;;;;;;;;;;4989912;28;20896;-61
2021/08/25 09:58:02;;;;;;;0.75;0.40;;;;;;;;;;4965624;28;20112;-60
2021/08/25 10:00:30;;;;;;;0.60;0.30;;;;;;;;;;4988363;28;20094;-61
2021/08/25 10:03:05;;;;;;;0.68;0.28;;;;;;;;;;4985528;28;20029;-61
2021/08/25 10:05:31;;;;;;;2.67;0.30;;;;;;;;;;4968934;28;20135;-61
2021/08/25 10:07:57;;;;;;;0.50;0.30;;;;;;;;;;4986925;28;20060;-62
2021/08/25 10:10:25;;;;;;;0.98;0.35;;;;;;;;;;4987556;28;20021;-62
2021/08/25 10:12:55;;;;;;;0.77;0.28;;;;;;;;;;4967552;28;20092;-62
2021/08/25 10:15:30;;;;;;;0.90;0.17;;;;;;;;;;4974540;28;20076;-62
2021/08/25 10:17:58;;;;;;;0.28;0.20;;;;;;;;;;4982975;28;20991;-61
2021/08/25 10:20:23;;;;;;;0.55;0.22;;;;;;;;;;4986150;28;20038;-61
2021/08/25 10:22:53;;;;;;;0.20;0.20;;;;;;;;;;4970314;28;20026;-61
2021/08/25 10:25:18;;;;;;;0.30;0.10;;;;;;;;;;4989253;28;20050;-62
2021/08/25 10:27:59;;;;;;;0.00;0.00;;;;;;;;;;4968668;28;20038;-62
2021/08/25 10:30:25;;;;;;;0.22;0.10;;;;;;;;;;4988742;28;20044;-63
2021/08/25 10:32:50;;;;;;;0.98;0.40;;;;;;;;;;4984320;28;20026;-62
2021/08/25 10:35:29;;;;;;;1.98;0.20;;;;;;;;;;4988928;28;21956;-62
2021/08/25 10:38:17;;;;;;;0.28;0.22;;;;;;;;;;4984712;28;20056;-62
2021/08/25 10:40:43;;;;;;;0.17;0.10;;;;;;;;;;4983398;28;22008;-62
2021/08/25 10:43:12;;;;;;;0.73;0.30;;;;;;;;;;4986686;28;20017;-63
2021/08/25 10:45:46;;;;;;;0.30;0.17;;;;;;;;;;4985513;28;20384;-63
2021/08/25 10:48:16;;;;;;;0.10;0.00;;;;;;;;;;4984914;28;20042;-61
2021/08/25 10:50:51;;;;;;;0.03;0.03;;;;;;;;;;4972516;28;20041;-61
2021/08/25 10:53:28;;;;;;;0.25;0.10;;;;;;;;;;4988219;28;20140;-59
2021/08/25 10:56:13;;;;;;;0.00;0.00;;;;;;;;;;4983311;28;20038;-61
2021/08/25 10:58:45;;;;;;;1.27;0.15;;;;;;;;;;4985528;28;20048;-61
2021/08/25 11:01:28;;;;;;;0.52;0.15;;;;;;;;;;4983454;28;20026;-61
2021/08/25 11:03:56;;;;;;;0.00;0.00;;;;;;;;;;4965043;28;20069;-60
2021/08/25 11:06:32;;;;;;;0.35;0.10;;;;;;;;;;4970240;28;20405;-59
2021/08/25 11:09:10;;;;;;;1.27;0.38;;;;;;;;;;4971523;28;20048;-59
2021/08/25 11:11:35;;;;;;;0.65;0.20;;;;;;;;;;4985150;28;20038;-62
2021/08/25 11:14:04;;;;;;;1.35;0.22;;;;;;;;;;4985232;28;20037;-60
2021/08/25 11:16:32;;;;;;;0.57;0.35;;;;;;;;;;4978089;28;20062;-59
2021/08/25 11:19:00;;;;;;;2.28;0.85;;;;;;;;;;4985058;28;20510;-60
2021/08/25 11:21:28;;;;;;;2.35;0.20;;;;;;;;;;4968441;28;20038;-63
2021/08/25 11:23:57;;;;;;;4.88;0.50;;;;;;;;;;4985637;28;20033;-61
2021/08/25 11:26:29;;;;;;;1.33;0.30;;;;;;;;;;4985237;28;21116;-61
2021/08/25 11:28:55;;;;;;;0.28;0.20;;;;;;;;;;4963864;28;20042;-59
2021/08/25 11:31:29;;;;;;;0.30;0.25;;;;;;;;;;4967254;28;20088;-60
2021/08/25 11:33:54;;;;;;;;;;;;;;;;;;4982906;28;20037;-59
2021/08/25 11:36:20;;;;;;;3.88;0.60;;;;;;;;;;4983996;28;20398;-61
2021/08/25 11:38:45;;;;;;;1.15;0.25;;;;;;;;;;4984645;28;20077;-61
2021/08/25 11:41:13;;;;;;;2.08;0.40;;;;;;;;;;4988704;28;20033;-61
2021/08/25 11:43:50;;;;;;;1.85;0.50;;;;;;;;;;4985054;28;20923;-61
2021/08/25 11:46:24;;;;;;;1.85;0.32;;;;;;;;;;4987616;28;20080;-60
2021/08/25 11:48:52;;;;;;;2.50;0.40;;;;;;;;;;4982269;28;20061;-61
2021/08/25 11:51:23;;;;;;;3.42;0.52;;;;;;;;;;4970446;28;20408;-60
2021/08/25 11:53:51;;;;;;;1.25;0.38;;;;;;;;;;4968009;28;20596;-60
2021/08/25 11:56:18;;;;;;;1.98;0.30;;;;;;;;;;4964843;28;20495;-59
2021/08/25 11:58:44;;;;;;;0.63;0.20;;;;;;;;;;4969481;28;20044;-60
2021/08/25 12:01:22;;;;;;;1.45;0.30;;;;;;;;;;4985258;28;20037;-61
2021/08/25 12:03:52;;;;;;;0.82;0.22;;;;;;;;;;4986702;28;20030;-60
2021/08/25 12:06:19;;;;;;;0.40;0.20;;;;;;;;;;4984237;28;20153;-59
2021/08/25 12:08:46;;;;;;;1.20;0.28;;;;;;;;;;4988543;28;20643;-60
2021/08/25 12:11:14;;;;;;;1.38;0.60;;;;;;;;;;4986541;28;20028;-61
2021/08/25 12:13:43;;;;;;;1.08;0.50;;;;;;;;;;4954051;28;20117;-60
2021/08/25 12:16:18;;;;;;;1.25;0.60;;;;;;;;;;4965150;28;20998;-61
2021/08/25 12:18:46;;;;;;;0.22;0.13;;;;;;;;;;4986977;28;20033;-61
2021/08/25 12:21:16;;;;;;;3.03;0.30;;;;;;;;;;4971837;28;20486;-60
2021/08/25 12:23:57;;;;;;;0.60;0.47;;;;;;;;;;4986978;28;20026;-62
2021/08/25 12:26:23;;;;;;;1.25;0.52;;;;;;;;;;4961217;28;20144;-60
2021/08/25 12:28:49;;;;;;;1.25;0.38;;;;;;;;;;4967769;28;20655;-59
2021/08/25 12:31:22;;;;;;;0.75;0.40;;;;;;;;;;4967573;28;20034;-60
2021/08/25 12:33:51;;;;;;;1.40;0.60;;;;;;;;;;4968603;28;20102;-60
2021/08/25 12:36:20;;;;;;;1.77;0.55;;;;;;;;;;4964393;28;20037;-60
2021/08/25 12:38:45;;;;;;;1.02;0.47;;;;;;;;;;4981925;28;20037;-61
2021/08/25 12:41:15;;;;;;;0.82;0.60;;;;;;;;;;4984278;28;20029;-61
2021/08/25 12:43:41;;;;;;;2.55;0.70;;;;;;;;;;4980767;28;20038;-60
2021/08/25 12:46:07;;;;;;;1.02;0.60;;;;;;;;;;4965367;28;20038;-59
2021/08/25 12:48:39;;;;;;;0.90;0.50;;;;;;;;;;4984842;28;20037;-59
2021/08/25 12:51:05;;;;;;;0.82;0.38;;;;;;;;;;4984236;28;20038;-61
2021/08/25 12:53:38;;;;;;;1.38;0.90;;;;;;;;;;4962879;28;20449;-60
2021/08/25 12:56:06;;;;;;;4.80;0.73;;;;;;;;;;4981827;28;20115;-61
2021/08/25 12:58:32;;;;;;;2.08;0.93;;;;;;;;;;4982384;28;20042;-60
2021/08/25 13:00:57;;;;;;;2.30;0.90;;;;;;;;;;4969255;28;20119;-59
2021/08/25 13:03:23;;;;;;;0.93;0.70;;;;;;;;;;4985144;28;20037;-62
2021/08/25 13:05:48;;;;;;;2.00;1.00;;;;;;;;;;4983584;28;20747;-59
2021/08/25 13:08:14;;;;;;;2.97;1.13;;;;;;;;;;4981253;28;20044;-61
2021/08/25 13:10:40;;;;;;;1.67;1.00;;;;;;;;;;4984856;28;20034;-61
2021/08/25 13:13:06;;;;;;;2.17;1.10;;;;;;;;;;4944674;28;20030;-59
2021/08/25 13:15:33;;;;;;;2.63;1.10;;;;;;;;;;4965622;28;20033;-60
2021/08/25 13:17:59;;;;;;;4.65;1.50;;;;;;;;;;4983619;28;20045;-59
2021/08/25 13:20:29;;;;;;;1.98;1.38;;;;;;;;;;4966672;28;21300;-60
2021/08/25 13:22:57;;;;;;;2.10;1.15;;;;;;;;;;4984609;28;20112;-60
2021/08/25 13:25:23;;;;;;;3.75;1.02;;;;;;;;;;4985628;28;20021;-60
2021/08/25 13:27:48;;;;;;;4.70;1.30;;;;;;;;;;4970826;28;20061;-60
2021/08/25 13:30:14;;;;;;;5.85;1.20;;;;;;;;;;4988256;28;20170;-60
2021/08/25 13:32:39;;;;;;;1.67;0.82;;;;;;;;;;4985215;28;20124;-60
2021/08/25 13:35:07;;;;;;;1.40;0.90;;;;;;;;;;4971557;28;21068;-60
2021/08/25 13:37:33;;;;;;;3.65;0.98;;;;;;;;;;4987815;28;20042;-62
2021/08/25 13:40:00;;;;;;;5.45;1.48;;;;;;;;;;4990547;28;20516;-59
2021/08/25 13:42:25;;;;;;;7.00;1.02;;;;;;;;;;4946026;28;20528;-60
2021/08/25 13:44:51;;;;;;;2.80;0.95;;;;;;;;;;4977002;28;20052;-60
2021/08/25 13:47:17;;;;;;;1.48;1.00;;;;;;;;;;4972085;28;20034;-61
2021/08/25 13:49:43;;;;;;;5.00;1.10;;;;;;;;;;4988103;28;20030;-60
2021/08/25 13:52:09;;;;;;;3.47;1.10;;;;;;;;;;4989900;28;20420;-58
2021/08/25 13:54:34;;;;;;;7.07;1.00;;;;;;;;;;4975771;28;20033;-60
2021/08/25 13:57:00;;;;;;;3.10;1.05;;;;;;;;;;4968417;28;20053;-61
2021/08/25 13:59:28;;;;;;;2.28;1.20;;;;;;;;;;4956752;28;20018;-60
2021/08/25 14:01:55;;;;;;;3.55;1.30;;;;;;;;;;4955743;28;20152;-60
2021/08/25 14:04:23;;;;;;;6.40;1.65;;;;;;;;;;4984405;28;20021;-60
2021/08/25 14:06:49;;;;;;;6.85;1.85;;;;;;;;;;4985428;28;20061;-60
2021/08/25 14:09:17;;;;;;;3.78;1.60;;;;;;;;;;4983375;28;20118;-59
2021/08/25 14:11:43;;;;;;;2.45;1.13;;;;;;;;;;4983333;28;20038;-60
2021/08/25 14:14:10;;;;;;;3.75;1.08;;;;;;;;;;4988680;28;20095;-60
2021/08/25 14:16:40;;;;;;;2.83;1.10;;;;;;;;;;4986577;28;20179;-62
2021/08/25 14:19:05;;;;;;;1.65;1.00;;;;;;;;;;4969291;28;20045;-60
2021/08/25 14:21:32;;;;;;;5.10;1.33;;;;;;;;;;4986897;28;21283;-59
2021/08/25 14:24:02;;;;;;;2.22;1.50;;;;;;;;;;4982738;28;20560;-59
2021/08/25 14:26:29;;;;;;;1.85;1.40;;;;;;;;;;4987320;28;20120;-59
2021/08/25 14:28:56;;;;;;;1.60;1.30;;;;;;;;;;4986028;28;20045;-59
2021/08/25 14:31:22;;;;;;;3.50;1.33;;;;;;;;;;4987097;28;20036;-61
2021/08/25 14:33:48;;;;;;;2.10;1.75;;;;;;;;;;4987173;28;20022;-60
2021/08/25 14:36:13;;;;;;;2.50;1.23;;;;;;;;;;4966568;28;20133;-60
2021/08/25 14:38:39;;;;;;;3.17;1.20;;;;;;;;;;4964967;28;20025;-61
2021/08/25 14:41:06;;;;;;;4.22;1.23;;;;;;;;;;4985420;28;20053;-59
2021/08/25 14:43:32;;;;;;;8.73;1.13;;;;;;;;;;4986985;28;20042;-61
2021/08/25 14:46:02;;;;;;;1.50;0.90;;;;;;;;;;4972751;28;20042;-59
2021/08/25 14:48:32;;;;;;;1.25;0.77;;;;;;;;;;4971132;28;20112;-59
2021/08/25 14:51:02;;;;;;;2.35;1.20;;;;;;;;;;4974092;28;20200;-59
2021/08/25 14:53:32;;;;;;;4.07;1.00;;;;;;;;;;4974205;28;20033;-60
2021/08/25 14:55:58;;;;;;;1.73;0.85;;;;;;;;;;4987659;28;20556;-59
2021/08/25 14:58:24;;;;;;;1.20;0.80;;;;;;;;;;4984680;28;20030;-60
2021/08/25 15:00:50;;;;;;;1.60;0.90;;;;;;;;;;4988075;28;20030;-59
2021/08/25 15:03:16;;;;;;;3.70;1.20;;;;;;;;;;4986761;28;20087;-59
2021/08/25 15:05:42;;;;;;;2.90;0.90;;;;;;;;;;4985495;28;21030;-59